sensor_id;sensor_type;location;lat;lon;timestamp;P1;durP1;ratioP1;P2;durP2;ratioP2
10305;SDS011;5198;52.382;9.020;2023-03-01T01:03:18;273.40;;;61.60;;
10305;SDS011;5198;52.382;9.020;2023-03-01T01:07:23;244.55;;;59.85;;
10305;SDS011;5198;52.382;9.020;2023-03-01T10:01:38;273.80;;;62.50;;
10305;SDS011;5198;52.382;9.020;2023-03-01T13:19:58;263.05;;;60.10;;
10305;SDS011;5198;52.382;9.020;2023-03-01T13:24:01;250.65;;;60.15;;
10305;SDS011;5198;52.382;9.020;2023-03-01T13:32:28;242.63;;;61.83;;
10305;SDS011;5198;52.382;9.020;2023-03-01T13:36:50;235.63;;;60.70;;
10305;SDS011;5198;52.382;9.020;2023-03-01T13:40:57;231.17;;;61.83;;
10305;SDS011;5198;52.382;9.020;2023-03-01T13:45:02;235.33;;;60.17;;
10305;SDS011;5198;52.382;9.020;2023-03-01T13:49:09;219.35;;;61.65;;
10305;SDS011;5198;52.382;9.020;2023-03-01T13:53:18;206.73;;;58.90;;
10305;SDS011;5198;52.382;9.020;2023-03-01T13:57:26;223.20;;;58.50;;
10305;SDS011;5198;52.382;9.020;2023-03-01T14:01:35;230.05;;;61.10;;
10305;SDS011;5198;52.382;9.020;2023-03-01T14:05:39;229.25;;;61.20;;
10305;SDS011;5198;52.382;9.020;2023-03-01T14:09:45;223.50;;;60.00;;
10305;SDS011;5198;52.382;9.020;2023-03-01T14:18:33;226.47;;;61.17;;
10305;SDS011;5198;52.382;9.020;2023-03-01T14:22:41;223.20;;;60.60;;
10305;SDS011;5198;52.382;9.020;2023-03-01T14:26:47;218.23;;;59.45;;
10305;SDS011;5198;52.382;9.020;2023-03-01T14:30:52;226.43;;;61.60;;
10305;SDS011;5198;52.382;9.020;2023-03-01T14:34:56;220.40;;;60.80;;
10305;SDS011;5198;52.382;9.020;2023-03-01T14:39:00;219.40;;;60.90;;
10305;SDS011;5198;52.382;9.020;2023-03-01T14:43:09;213.40;;;59.70;;
10305;SDS011;5198;52.382;9.020;2023-03-01T14:47:23;223.00;;;59.65;;
10305;SDS011;5198;52.382;9.020;2023-03-01T14:51:29;226.97;;;58.87;;
10305;SDS011;5198;52.382;9.020;2023-03-01T14:55:33;228.30;;;60.25;;
10305;SDS011;5198;52.382;9.020;2023-03-01T14:59:40;227.40;;;61.50;;
10305;SDS011;5198;52.382;9.020;2023-03-01T15:03:45;225.82;;;62.28;;
10305;SDS011;5198;52.382;9.020;2023-03-01T15:07:50;224.20;;;61.40;;
10305;SDS011;5198;52.382;9.020;2023-03-01T15:11:54;224.90;;;62.37;;
10305;SDS011;5198;52.382;9.020;2023-03-01T15:16:06;225.40;;;61.50;;
10305;SDS011;5198;52.382;9.020;2023-03-01T15:20:15;228.03;;;61.37;;
10305;SDS011;5198;52.382;9.020;2023-03-01T15:24:23;221.90;;;61.60;;
10305;SDS011;5198;52.382;9.020;2023-03-01T15:28:29;218.15;;;60.20;;
10305;SDS011;5198;52.382;9.020;2023-03-01T15:32:35;222.65;;;61.90;;
10305;SDS011;5198;52.382;9.020;2023-03-01T15:36:44;223.20;;;62.15;;
10305;SDS011;5198;52.382;9.020;2023-03-01T15:40:51;234.02;;;62.58;;
10305;SDS011;5198;52.382;9.020;2023-03-01T15:49:20;224.10;;;61.20;;
10305;SDS011;5198;52.382;9.020;2023-03-01T15:53:29;223.93;;;62.47;;
10305;SDS011;5198;52.382;9.020;2023-03-01T15:57:32;223.23;;;62.85;;
10305;SDS011;5198;52.382;9.020;2023-03-01T16:01:36;226.95;;;62.03;;
10305;SDS011;5198;52.382;9.020;2023-03-01T16:05:40;228.85;;;63.00;;
10305;SDS011;5198;52.382;9.020;2023-03-01T16:09:43;224.40;;;62.75;;
10305;SDS011;5198;52.382;9.020;2023-03-01T16:13:47;219.83;;;61.33;;
10305;SDS011;5198;52.382;9.020;2023-03-01T16:17:51;221.90;;;61.50;;
10305;SDS011;5198;52.382;9.020;2023-03-01T16:21:55;227.50;;;62.00;;
10305;SDS011;5198;52.382;9.020;2023-03-01T16:25:59;222.17;;;61.53;;
10305;SDS011;5198;52.382;9.020;2023-03-01T16:30:03;217.55;;;62.55;;
10305;SDS011;5198;52.382;9.020;2023-03-01T16:34:06;212.20;;;61.50;;
10305;SDS011;5198;52.382;9.020;2023-03-01T16:38:11;218.25;;;61.95;;
10305;SDS011;5198;52.382;9.020;2023-03-01T16:46:18;237.25;;;61.15;;
10305;SDS011;5198;52.382;9.020;2023-03-01T16:50:22;239.93;;;61.77;;
10305;SDS011;5198;52.382;9.020;2023-03-01T16:54:26;245.75;;;61.70;;
10305;SDS011;5198;52.382;9.020;2023-03-01T16:58:29;244.45;;;62.50;;
10305;SDS011;5198;52.382;9.020;2023-03-01T17:02:33;238.40;;;60.90;;
10305;SDS011;5198;52.382;9.020;2023-03-01T17:06:36;242.45;;;63.25;;
10305;SDS011;5198;52.382;9.020;2023-03-01T17:10:41;232.85;;;61.65;;
10305;SDS011;5198;52.382;9.020;2023-03-01T17:14:44;239.47;;;62.63;;
10305;SDS011;5198;52.382;9.020;2023-03-01T17:18:49;235.75;;;60.95;;
10305;SDS011;5198;52.382;9.020;2023-03-01T17:22:52;233.73;;;61.17;;
10305;SDS011;5198;52.382;9.020;2023-03-01T17:26:57;237.00;;;61.90;;
10305;SDS011;5198;52.382;9.020;2023-03-01T17:35:06;239.90;;;61.30;;
10305;SDS011;5198;52.382;9.020;2023-03-01T17:39:12;231.55;;;61.40;;
10305;SDS011;5198;52.382;9.020;2023-03-01T17:43:16;234.80;;;61.60;;
10305;SDS011;5198;52.382;9.020;2023-03-01T17:47:20;234.10;;;61.50;;
10305;SDS011;5198;52.382;9.020;2023-03-01T17:51:23;235.70;;;61.90;;
10305;SDS011;5198;52.382;9.020;2023-03-01T17:55:26;236.00;;;61.47;;
10305;SDS011;5198;52.382;9.020;2023-03-01T17:59:34;243.60;;;61.40;;
10305;SDS011;5198;52.382;9.020;2023-03-01T18:03:37;242.05;;;62.00;;
10305;SDS011;5198;52.382;9.020;2023-03-01T18:07:42;239.80;;;62.35;;
10305;SDS011;5198;52.382;9.020;2023-03-01T18:11:45;240.00;;;61.00;;
10305;SDS011;5198;52.382;9.020;2023-03-01T18:15:50;241.00;;;62.90;;
10305;SDS011;5198;52.382;9.020;2023-03-01T18:19:53;241.55;;;62.95;;
10305;SDS011;5198;52.382;9.020;2023-03-01T18:23:57;246.20;;;61.70;;
10305;SDS011;5198;52.382;9.020;2023-03-01T18:28:01;242.05;;;61.67;;
10305;SDS011;5198;52.382;9.020;2023-03-01T18:32:06;243.10;;;61.57;;
10305;SDS011;5198;52.382;9.020;2023-03-01T18:36:16;245.33;;;62.03;;
10305;SDS011;5198;52.382;9.020;2023-03-01T18:40:24;252.55;;;62.45;;
10305;SDS011;5198;52.382;9.020;2023-03-01T18:44:28;251.17;;;63.33;;
10305;SDS011;5198;52.382;9.020;2023-03-01T18:48:32;251.67;;;62.60;;
10305;SDS011;5198;52.382;9.020;2023-03-01T18:52:37;249.65;;;62.50;;
10305;SDS011;5198;52.382;9.020;2023-03-01T18:56:41;249.50;;;61.50;;
10305;SDS011;5198;52.382;9.020;2023-03-01T19:00:44;251.75;;;62.50;;
10305;SDS011;5198;52.382;9.020;2023-03-01T19:16:58;248.77;;;60.25;;
10305;SDS011;5198;52.382;9.020;2023-03-01T19:21:03;254.85;;;61.80;;
10305;SDS011;5198;52.382;9.020;2023-03-01T19:25:07;253.55;;;62.00;;
10305;SDS011;5198;52.382;9.020;2023-03-01T19:29:10;256.90;;;62.70;;
10305;SDS011;5198;52.382;9.020;2023-03-01T19:33:15;257.10;;;61.90;;
10305;SDS011;5198;52.382;9.020;2023-03-01T19:37:19;254.80;;;61.70;;
10305;SDS011;5198;52.382;9.020;2023-03-01T19:41:24;256.23;;;62.70;;
10305;SDS011;5198;52.382;9.020;2023-03-01T19:45:27;259.27;;;62.80;;
10305;SDS011;5198;52.382;9.020;2023-03-01T19:49:34;258.73;;;62.73;;
10305;SDS011;5198;52.382;9.020;2023-03-01T19:53:39;260.20;;;62.60;;
10305;SDS011;5198;52.382;9.020;2023-03-01T19:57:42;259.02;;;62.80;;
10305;SDS011;5198;52.382;9.020;2023-03-01T20:01:45;258.70;;;62.57;;
10305;SDS011;5198;52.382;9.020;2023-03-01T20:05:48;259.85;;;63.58;;
10305;SDS011;5198;52.382;9.020;2023-03-01T20:09:53;259.55;;;62.90;;
10305;SDS011;5198;52.382;9.020;2023-03-01T20:13:56;258.87;;;62.50;;
10305;SDS011;5198;52.382;9.020;2023-03-01T20:18:00;256.92;;;62.03;;
10305;SDS011;5198;52.382;9.020;2023-03-01T20:22:03;259.40;;;63.10;;
10305;SDS011;5198;52.382;9.020;2023-03-01T20:26:08;259.00;;;62.75;;
10305;SDS011;5198;52.382;9.020;2023-03-01T20:30:15;259.05;;;62.30;;
10305;SDS011;5198;52.382;9.020;2023-03-01T20:34:18;259.17;;;63.28;;
10305;SDS011;5198;52.382;9.020;2023-03-01T20:38:21;259.10;;;62.75;;
10305;SDS011;5198;52.382;9.020;2023-03-01T20:42:27;259.27;;;62.60;;
10305;SDS011;5198;52.382;9.020;2023-03-01T20:46:30;256.42;;;62.22;;
10305;SDS011;5198;52.382;9.020;2023-03-01T20:50:34;259.50;;;62.50;;
10305;SDS011;5198;52.382;9.020;2023-03-01T20:54:41;259.70;;;63.03;;
10305;SDS011;5198;52.382;9.020;2023-03-01T20:58:45;260.80;;;62.95;;
10305;SDS011;5198;52.382;9.020;2023-03-01T21:02:48;263.40;;;64.90;;
10305;SDS011;5198;52.382;9.020;2023-03-01T21:06:51;260.95;;;63.10;;
10305;SDS011;5198;52.382;9.020;2023-03-01T21:10:55;258.92;;;62.72;;
10305;SDS011;5198;52.382;9.020;2023-03-01T21:15:00;263.05;;;63.75;;
10305;SDS011;5198;52.382;9.020;2023-03-01T21:23:06;253.90;;;62.40;;
10305;SDS011;5198;52.382;9.020;2023-03-01T21:27:10;255.65;;;62.45;;
10305;SDS011;5198;52.382;9.020;2023-03-01T21:31:15;264.10;;;61.80;;
10305;SDS011;5198;52.382;9.020;2023-03-01T21:35:19;264.97;;;63.33;;
10305;SDS011;5198;52.382;9.020;2023-03-01T21:39:22;263.80;;;63.80;;
10305;SDS011;5198;52.382;9.020;2023-03-01T21:43:29;264.05;;;63.78;;
10305;SDS011;5198;52.382;9.020;2023-03-01T21:47:33;263.23;;;63.40;;
10305;SDS011;5198;52.382;9.020;2023-03-01T21:51:36;262.97;;;63.20;;
10305;SDS011;5198;52.382;9.020;2023-03-01T21:55:45;264.20;;;64.20;;
10305;SDS011;5198;52.382;9.020;2023-03-01T21:59:48;264.80;;;63.70;;
10305;SDS011;5198;52.382;9.020;2023-03-01T22:03:55;263.60;;;63.40;;
10305;SDS011;5198;52.382;9.020;2023-03-01T22:07:59;262.90;;;63.13;;
10305;SDS011;5198;52.382;9.020;2023-03-01T22:12:04;260.80;;;62.20;;
10305;SDS011;5198;52.382;9.020;2023-03-01T22:16:08;262.70;;;63.70;;
10305;SDS011;5198;52.382;9.020;2023-03-01T22:20:12;261.30;;;63.30;;
10305;SDS011;5198;52.382;9.020;2023-03-01T22:24:16;259.55;;;62.75;;
10305;SDS011;5198;52.382;9.020;2023-03-01T22:28:22;260.00;;;62.50;;
10305;SDS011;5198;52.382;9.020;2023-03-01T22:32:25;265.50;;;62.95;;
10305;SDS011;5198;52.382;9.020;2023-03-01T22:36:30;258.07;;;61.97;;
10305;SDS011;5198;52.382;9.020;2023-03-01T22:40:34;259.30;;;63.13;;
10305;SDS011;5198;52.382;9.020;2023-03-01T22:44:39;259.77;;;62.67;;
10305;SDS011;5198;52.382;9.020;2023-03-01T22:48:42;266.10;;;63.20;;
10305;SDS011;5198;52.382;9.020;2023-03-01T22:52:47;266.20;;;62.90;;
10305;SDS011;5198;52.382;9.020;2023-03-01T22:56:50;269.17;;;63.47;;
10305;SDS011;5198;52.382;9.020;2023-03-01T23:00:53;268.97;;;64.20;;
10305;SDS011;5198;52.382;9.020;2023-03-01T23:04:56;267.40;;;64.93;;
10305;SDS011;5198;52.382;9.020;2023-03-01T23:09:01;260.95;;;62.75;;
10305;SDS011;5198;52.382;9.020;2023-03-01T23:13:07;257.30;;;62.40;;
10305;SDS011;5198;52.382;9.020;2023-03-01T23:17:10;257.33;;;62.22;;
10305;SDS011;5198;52.382;9.020;2023-03-01T23:21:14;254.93;;;61.77;;
10305;SDS011;5198;52.382;9.020;2023-03-01T23:25:20;256.67;;;62.28;;
10305;SDS011;5198;52.382;9.020;2023-03-01T23:29:23;256.47;;;62.23;;
10305;SDS011;5198;52.382;9.020;2023-03-01T23:33:26;254.85;;;61.70;;
10305;SDS011;5198;52.382;9.020;2023-03-01T23:37:33;256.30;;;62.50;;
10305;SDS011;5198;52.382;9.020;2023-03-01T23:41:37;254.43;;;61.70;;
10305;SDS011;5198;52.382;9.020;2023-03-01T23:45:41;259.70;;;62.00;;
10305;SDS011;5198;52.382;9.020;2023-03-01T23:49:44;254.80;;;61.40;;
10305;SDS011;5198;52.382;9.020;2023-03-01T23:53:47;256.90;;;61.05;;
10305;SDS011;5198;52.382;9.020;2023-03-01T23:57:56;255.40;;;60.93;;
